aviador You're here:

YCFS Decoded Metar

in
Report Time2017-08-19 10:30:00
UTC Time2017-08-19 11:10:52
Flight Rules vfr VFR
Wind210° at 15 kt
W.Decomp.*RWY 21: 15.0 kt HW 0 kt LCW
RWY 28: 5.1 kt HW 14.1 kt LCW
W.Rank210° ranks 17
Current wind is above 210° avg. (10.3)
Visibility9999 m
Phenomena:N/A
Clouds:N/A
Expected CloudBase > 2,400 ft AGL from Temp-Dew spread
CeilingNone
Temp12°C
Dew Point06°C (67% RH)
AAT5.7°C
QNH1017 hPa
Raw Report
METAR YCFS 191030Z AUTO 21015KT 9999 // NCD 12/06 Q1017
RF00.0/000.0=

Extra information for YCFS:More info

Social comments